Time;durP1;ratioP1;P1;durP2;ratioP2;P2;SDS_P1;SDS_P2;PMS_P1;PMS_P2;Temp;Humidity;BMP_temperature;BMP_pressure;BME280_temperature;BME280_humidity;BME280_pressure;Samples;Min_cycle;Max_cycle;Signal;HPM_P1;HPM_P2
2022/04/08 00:02:02;;;;;;;16.90;16.10;;;7.10;92.10;;;;;;4980589;28;20482;-80
2022/04/08 00:04:30;;;;;;;44.60;43.00;;;7.00;93.10;;;;;;4982907;28;20455;-81
2022/04/08 00:06:57;;;;;;;46.93;45.23;;;6.60;94.60;;;;;;4983096;28;20555;-80
2022/04/08 00:09:24;;;;;;;43.90;42.30;;;6.60;94.50;;;;;;4981393;28;20455;-80
2022/04/08 00:11:50;;;;;;;44.83;43.23;;;6.50;93.50;;;;;;4980021;28;20458;-80
2022/04/08 00:14:19;;;;;;;45.70;44.00;;;6.30;94.30;;;;;;4980480;28;20458;-80
2022/04/08 00:16:45;;;;;;;52.40;50.50;;;6.20;94.30;;;;;;4980253;28;20553;-80
2022/04/08 00:19:12;;;;;;;54.80;52.90;;;6.10;94.70;;;;;;4980209;28;20971;-80
2022/04/08 00:21:39;;;;;;;59.57;57.47;;;6.00;95.00;;;;;;4981077;28;20455;-81
2022/04/08 00:24:07;;;;;;;54.67;52.73;;;6.00;95.50;;;;;;4980605;28;20971;-80
2022/04/08 00:26:33;;;;;;;38.53;37.13;;;6.10;94.90;;;;;;4980878;28;20570;-81
2022/04/08 00:29:00;;;;;;;36.90;35.50;;;6.20;92.90;;;;;;4980168;28;20463;-80
2022/04/08 00:31:28;;;;;;;28.77;27.67;;;6.00;93.20;;;;;;4981024;28;20463;-80
2022/04/08 00:33:55;;;;;;;26.80;25.70;;;6.10;92.10;;;;;;4982077;28;20462;-80
2022/04/08 00:36:22;;;;;;;18.00;17.20;;;6.00;92.40;;;;;;4981846;28;20462;-82
2022/04/08 00:38:49;;;;;;;21.30;20.40;;;6.10;92.50;;;;;;4981628;28;20861;-81
2022/04/08 00:41:16;;;;;;;23.43;22.43;;;6.10;92.90;;;;;;4981686;28;20926;-84
2022/04/08 00:43:42;;;;;;;22.77;21.87;;;5.90;92.90;;;;;;4983058;28;20462;-81
2022/04/08 00:46:10;;;;;;;20.90;20.00;;;5.90;93.20;;;;;;4981425;28;20478;-80
2022/04/08 00:48:38;;;;;;;20.27;19.37;;;5.90;92.60;;;;;;4981235;28;20458;-81
2022/04/08 00:51:06;;;;;;;20.17;19.30;;;5.90;92.30;;;;;;4982230;28;20840;-81
2022/04/08 00:53:34;;;;;;;20.77;19.87;;;5.90;92.90;;;;;;4981233;28;20459;-83
2022/04/08 00:56:02;;;;;;;19.10;18.30;;;5.90;92.50;;;;;;4981672;28;20443;-82
2022/04/08 00:58:29;;;;;;;20.40;19.50;;;5.90;92.20;;;;;;4981265;28;20470;-82
2022/04/08 01:00:56;;;;;;;24.30;23.30;;;5.90;92.40;;;;;;4981386;28;20459;-81
2022/04/08 01:03:23;;;;;;;21.40;20.50;;;6.00;92.70;;;;;;4981416;28;20480;-83
2022/04/08 01:05:51;;;;;;;20.53;19.63;;;6.00;92.60;;;;;;4980981;28;20481;-81
2022/04/08 01:08:18;;;;;;;19.70;18.70;;;5.90;92.10;;;;;;4980585;28;20475;-80
2022/04/08 01:10:45;;;;;;;19.00;18.20;;;6.00;92.00;;;;;;4980949;28;20505;-81
2022/04/08 01:13:11;;;;;;;21.00;20.10;;;5.90;92.10;;;;;;4980959;28;20471;-82
2022/04/08 01:15:38;;;;;;;23.00;22.10;;;5.90;92.70;;;;;;4980798;28;20447;-80
2022/04/08 01:18:06;;;;;;;22.93;22.03;;;5.80;92.80;;;;;;4980782;28;20478;-81
2022/04/08 01:20:33;;;;;;;22.53;21.63;;;5.80;92.50;;;;;;4980013;28;20529;-80
2022/04/08 01:23:01;;;;;;;19.93;19.13;;;5.80;92.50;;;;;;4980032;28;20470;-80
2022/04/08 01:25:30;;;;;;;24.03;23.03;;;5.90;92.00;;;;;;4980072;28;20486;-83
2022/04/08 01:27:57;;;;;;;24.80;23.80;;;6.10;92.60;;;;;;4979111;28;20490;-81
2022/04/08 01:30:23;;;;;;;19.90;19.10;;;6.00;92.20;;;;;;4978103;28;20462;-80
2022/04/08 01:32:50;;;;;;;21.90;21.00;;;6.10;91.70;;;;;;4978030;28;20454;-80
2022/04/08 01:35:17;;;;;;;26.73;25.63;;;6.10;91.80;;;;;;4979027;28;20459;-80
2022/04/08 01:37:44;;;;;;;25.00;24.00;;;5.80;92.70;;;;;;4978933;28;20474;-80
2022/04/08 01:40:11;;;;;;;31.00;29.80;;;6.00;92.90;;;;;;4978484;28;20462;-80
2022/04/08 01:42:40;;;;;;;28.60;27.50;;;5.80;93.40;;;;;;4979118;28;20481;-80
2022/04/08 01:45:08;;;;;;;28.10;27.00;;;5.80;93.10;;;;;;4978888;28;20826;-83
2022/04/08 01:47:35;;;;;;;32.03;30.77;;;5.80;92.90;;;;;;4978644;28;20987;-80
2022/04/08 01:50:01;;;;;;;27.30;26.20;;;5.80;93.10;;;;;;4977607;28;20459;-83
2022/04/08 01:52:28;;;;;;;32.00;30.80;;;5.80;92.90;;;;;;4978587;28;20465;-80
2022/04/08 01:54:55;;;;;;;30.17;28.97;;;5.70;93.10;;;;;;4978251;28;20459;-79
2022/04/08 01:57:23;;;;;;;29.10;28.00;;;5.90;92.90;;;;;;4977991;28;20471;-83
2022/04/08 01:59:52;;;;;;;34.03;32.73;;;6.00;92.60;;;;;;4978031;28;20832;-80
2022/04/08 02:02:20;;;;;;;27.50;26.40;;;6.10;93.10;;;;;;4978670;28;20474;-80
2022/04/08 02:04:46;;;;;;;31.60;30.40;;;6.20;92.80;;;;;;4978987;28;20880;-80
2022/04/08 02:07:13;;;;;;;32.37;31.17;;;6.10;92.90;;;;;;4978086;28;20999;-80
2022/04/08 02:09:40;;;;;;;32.20;31.00;;;6.10;93.30;;;;;;4977568;28;20459;-79
2022/04/08 02:12:07;;;;;;;33.60;32.30;;;6.30;92.80;;;;;;4978387;28;20459;-82
2022/04/08 02:14:34;;;;;;;28.50;27.40;;;6.10;92.30;;;;;;4976929;28;20463;-80
2022/04/08 02:17:02;;;;;;;30.80;29.60;;;6.20;92.40;;;;;;4977164;28;20478;-80
2022/04/08 02:19:28;;;;;;;33.43;32.13;;;6.20;93.00;;;;;;4976898;28;20465;-80
2022/04/08 02:21:55;;;;;;;40.23;38.73;;;6.10;93.10;;;;;;4978809;28;20525;-81
2022/04/08 02:24:22;;;;;;;37.17;35.77;;;6.20;93.50;;;;;;4979557;28;20462;-82
2022/04/08 02:26:49;;;;;;;39.30;37.80;;;6.10;93.50;;;;;;4979132;28;20487;-80
2022/04/08 02:29:16;;;;;;;30.07;28.87;;;6.10;93.50;;;;;;4977524;28;20462;-83
2022/04/08 02:31:42;;;;;;;32.20;31.00;;;6.20;93.10;;;;;;4978035;28;20470;-80
2022/04/08 02:34:11;;;;;;;31.73;30.53;;;6.20;93.00;;;;;;4978573;28;20461;-80
2022/04/08 02:36:37;;;;;;;32.37;31.17;;;6.10;93.60;;;;;;4978133;28;20502;-80
2022/04/08 02:39:04;;;;;;;32.43;31.23;;;6.20;93.60;;;;;;4976481;28;20459;-81
2022/04/08 02:41:31;;;;;;;31.50;30.30;;;6.20;94.00;;;;;;4977542;28;20458;-79
2022/04/08 02:43:58;;;;;;;31.90;30.70;;;6.00;93.50;;;;;;4978793;28;20826;-80
2022/04/08 02:46:24;;;;;;;38.67;37.27;;;6.00;93.60;;;;;;4978234;28;20490;-81
2022/04/08 02:48:51;;;;;;;34.10;32.80;;;6.00;94.40;;;;;;4977536;28;20450;-81
2022/04/08 02:51:19;;;;;;;34.30;33.00;;;6.00;94.20;;;;;;4977921;28;20827;-80
2022/04/08 02:53:46;;;;;;;35.37;34.07;;;5.90;94.40;;;;;;4977488;28;20458;-80
2022/04/08 02:56:13;;;;;;;41.80;40.30;;;5.80;94.70;;;;;;4976840;28;20461;-79
2022/04/08 02:58:39;;;;;;;45.50;43.80;;;5.70;95.20;;;;;;4975372;28;20455;-80
2022/04/08 03:01:06;;;;;;;56.43;54.43;;;5.50;95.80;;;;;;4978038;28;20465;-80
2022/04/08 03:03:33;;;;;;;62.03;59.83;;;5.40;96.30;;;;;;4979052;28;20843;-80
2022/04/08 03:06:00;;;;;;;58.30;56.20;;;5.30;97.30;;;;;;4977367;28;20475;-78
2022/04/08 03:08:30;;;;;;;60.70;58.60;;;5.20;97.20;;;;;;4976343;28;20494;-80
2022/04/08 03:10:57;;;;;;;62.33;60.13;;;5.30;97.50;;;;;;4977620;28;20459;-80
2022/04/08 03:13:24;;;;;;;413.67;395.53;;;5.30;97.80;;;;;;4978082;28;20455;-80
2022/04/08 03:15:51;;;;;;;402.47;384.77;;;5.10;98.20;;;;;;4977678;28;20458;-80
2022/04/08 03:18:17;;;;;;;416.80;399.00;;;5.10;98.20;;;;;;4976545;28;20553;-80
2022/04/08 03:20:44;;;;;;;432.00;412.87;;;5.10;98.60;;;;;;4977915;28;20864;-81
2022/04/08 03:23:11;;;;;;;387.87;371.30;;;5.00;98.50;;;;;;4977163;28;20459;-80
2022/04/08 03:25:39;;;;;;;396.90;379.90;;;5.00;98.20;;;;;;4977791;28;20465;-80
2022/04/08 03:28:06;;;;;;;331.27;317.97;;;5.10;98.20;;;;;;4980338;28;20486;-79
2022/04/08 03:30:33;;;;;;;317.17;304.27;;;5.10;97.90;;;;;;4980449;28;20465;-80
2022/04/08 03:33:00;;;;;;;291.33;279.80;;;5.10;97.60;;;;;;4981583;28;20466;-80
2022/04/08 03:35:26;;;;;;;272.03;261.03;;;5.20;97.30;;;;;;4980869;28;20837;-80
2022/04/08 03:37:53;;;;;;;278.73;266.70;;;5.20;96.60;;;;;;4981118;28;20477;-82
2022/04/08 03:40:20;;;;;;;281.10;268.97;;;5.20;97.00;;;;;;4979816;28;20466;-80
2022/04/08 03:42:54;;;;;;;259.60;248.40;;;5.30;96.30;;;;;;4980758;28;20461;-80
2022/04/08 03:45:20;;;;;;;230.33;221.27;;;5.20;96.20;;;;;;4980661;28;20994;-80
2022/04/08 03:47:49;;;;;;;233.60;222.73;;;5.30;96.10;;;;;;4981075;28;20487;-80
2022/04/08 03:50:15;;;;;;;241.93;231.70;;;5.30;96.10;;;;;;4980230;28;20455;-80
2022/04/08 03:52:43;;;;;;;257.80;245.87;;;5.30;96.10;;;;;;4981397;28;20458;-81
2022/04/08 03:55:10;;;;;;;239.27;229.57;;;5.40;96.20;;;;;;4980927;28;20454;-80
2022/04/08 03:57:37;;;;;;;228.40;218.27;;;5.30;96.00;;;;;;4981530;28;20471;-80
2022/04/08 04:00:08;;;;;;;232.07;222.20;;;5.30;96.10;;;;;;4980978;28;20621;-80
2022/04/08 04:02:35;;;;;;;262.87;251.27;;;5.20;96.20;;;;;;4981641;28;20466;-81
2022/04/08 04:05:02;;;;;;;300.43;286.30;;;5.20;96.20;;;;;;4981209;28;20454;-80
2022/04/08 04:07:29;;;;;;;316.17;301.57;;;5.20;96.70;;;;;;4981192;28;20483;-84
2022/04/08 04:09:56;;;;;;;326.93;312.17;;;5.20;97.00;;;;;;4981488;28;20799;-80
2022/04/08 04:12:22;;;;;;;385.77;367.67;;;5.00;97.30;;;;;;4979005;28;20462;-80
2022/04/08 04:14:49;;;;;;;391.97;373.70;;;5.00;97.70;;;;;;4975821;28;20998;-81
2022/04/08 04:17:18;;;;;;;439.83;418.70;;;4.90;97.80;;;;;;4976022;28;20474;-81
2022/04/08 04:19:45;;;;;;;459.77;437.07;;;4.80;98.40;;;;;;4975205;28;20802;-80
2022/04/08 04:22:12;;;;;;;464.80;441.13;;;4.80;98.70;;;;;;4976577;28;20454;-81
2022/04/08 04:24:38;;;;;;;516.47;488.47;;;4.90;98.90;;;;;;4976170;28;20470;-81
2022/04/08 04:27:21;;;;;;;545.70;516.20;;;4.80;99.00;;;;;;5014745;23;20494;-83
2022/04/08 04:29:53;;;;;;;559.50;528.07;;;4.70;99.60;;;;;;5041370;28;20451;-82
2022/04/08 04:33:00;;;;;;;547.70;517.63;;;4.70;99.80;;;;;;5040682;28;20452;-82
2022/04/08 04:38:52;;;;;;;587.10;552.80;;;4.70;99.80;;;;;;5038277;28;20838;-83
2022/04/08 04:44:52;;;;;;;614.53;577.00;;;4.60;99.90;;;;;;5036554;28;20451;-82
2022/04/08 04:47:29;;;;;;;632.20;593.87;;;4.50;99.90;;;;;;5038555;28;21005;-83
2022/04/08 04:50:08;;;;;;;628.10;589.70;;;4.60;99.90;;;;;;5040096;28;20827;-81
2022/04/08 04:52:48;;;;;;;636.10;597.30;;;4.40;99.90;;;;;;5040993;28;20538;-83
2022/04/08 04:55:23;;;;;;;632.20;593.07;;;4.60;99.90;;;;;;5040922;28;20459;-83
2022/04/08 04:58:33;;;;;;;649.73;609.40;;;4.50;99.90;;;;;;5041712;28;20492;-83
2022/04/08 05:01:01;;;;;;;621.40;584.60;;;4.50;99.90;;;;;;5040269;28;20467;-82
2022/04/08 05:03:36;;;;;;;621.63;584.50;;;4.60;99.90;;;;;;5040747;28;20459;-84
2022/04/08 05:06:09;;;;;;;629.47;591.47;;;4.50;99.90;;;;;;5039929;28;20526;-84
2022/04/08 05:08:37;;;;;;;643.00;604.23;;;4.50;99.90;;;;;;5038709;28;20492;-83
2022/04/08 05:11:04;;;;;;;669.27;628.37;;;4.30;99.90;;;;;;5039323;28;20456;-83
2022/04/08 05:13:32;;;;;;;682.97;639.80;;;4.50;99.90;;;;;;5038856;28;21208;-84
2022/04/08 05:15:59;;;;;;;688.80;644.90;;;4.50;99.90;;;;;;5039436;28;20953;-84
2022/04/08 05:18:26;;;;;;;692.27;649.00;;;4.40;99.90;;;;;;5039305;28;20477;-83
2022/04/08 05:20:53;;;;;;;719.73;672.30;;;4.30;99.90;;;;;;5038917;28;20444;-84
2022/04/08 05:23:21;;;;;;;735.60;686.10;;;4.20;99.90;;;;;;5039578;28;20447;-84
2022/04/08 05:25:48;;;;;;;743.23;691.60;;;4.40;99.90;;;;;;5040451;28;20444;-83
2022/04/08 05:28:15;;;;;;;736.03;686.57;;;4.40;99.90;;;;;;5037622;28;20924;-84
2022/04/08 05:30:42;;;;;;;709.33;662.63;;;4.60;99.90;;;;;;5040081;28;20487;-83
2022/04/08 05:33:09;;;;;;;671.67;630.70;;;4.60;99.90;;;;;;5039862;28;20452;-84
2022/04/08 05:35:40;;;;;;;663.07;622.10;;;4.50;99.90;;;;;;5040051;28;20472;-83
2022/04/08 05:38:07;;;;;;;646.47;606.43;;;4.70;99.90;;;;;;5039832;28;20475;-83
2022/04/08 05:40:35;;;;;;;614.07;578.43;;;4.70;99.90;;;;;;5039101;28;20460;-84
2022/04/08 05:43:02;;;;;;;601.90;568.40;;;4.90;99.90;;;;;;5036861;28;20973;-84
2022/04/08 05:45:29;;;;;;;529.30;500.43;;;4.90;99.60;;;;;;5038292;28;20471;-84
2022/04/08 05:47:56;;;;;;;528.37;499.23;;;5.10;98.80;;;;;;5035669;28;20480;-85
2022/04/08 05:50:23;;;;;;;463.60;438.80;;;5.00;98.60;;;;;;5036964;28;20484;-85
2022/04/08 05:52:51;;;;;;;445.43;421.13;;;5.10;98.20;;;;;;5037709;28;20459;-84
2022/04/08 05:55:18;;;;;;;403.40;381.70;;;5.20;98.10;;;;;;5037683;28;20453;-85
2022/04/08 05:57:47;;;;;;;409.60;388.40;;;5.10;97.70;;;;;;5038456;28;20501;-85
2022/04/08 06:00:17;;;;;;;436.00;413.40;;;5.20;97.70;;;;;;5037088;28;20555;-85
2022/04/08 06:02:45;;;;;;;403.80;383.10;;;5.40;97.30;;;;;;5037964;28;20475;-85
2022/04/08 06:05:15;;;;;;;316.70;300.40;;;5.60;97.00;;;;;;5037528;28;20467;-85
2022/04/08 06:07:45;;;;;;;278.80;264.17;;;5.70;96.30;;;;;;5037266;28;20871;-85
2022/04/08 06:10:12;;;;;;;236.23;224.63;;;5.70;95.70;;;;;;5036239;28;20464;-84
2022/04/08 06:12:39;;;;;;;211.20;200.90;;;5.70;95.20;;;;;;5037310;28;20830;-85
2022/04/08 06:15:08;;;;;;;210.87;201.13;;;5.80;94.60;;;;;;5037562;28;20459;-84
2022/04/08 06:17:38;;;;;;;212.73;202.23;;;5.70;94.10;;;;;;5037586;28;20475;-85
2022/04/08 06:20:05;;;;;;;206.57;196.77;;;5.80;94.10;;;;;;5036761;28;20486;-85
2022/04/08 06:22:32;;;;;;;199.37;190.73;;;5.80;94.10;;;;;;5027553;28;20449;-84
2022/04/08 06:24:59;;;;;;;207.70;198.27;;;5.90;94.00;;;;;;5016531;28;20523;-85
2022/04/08 06:27:26;;;;;;;176.13;168.13;;;5.80;94.00;;;;;;5016817;28;20488;-85
2022/04/08 06:29:52;;;;;;;184.43;176.33;;;5.80;93.80;;;;;;5016069;28;20535;-83
2022/04/08 06:32:22;;;;;;;196.17;188.00;;;5.90;93.20;;;;;;5016646;28;20465;-85
2022/04/08 06:34:49;;;;;;;158.50;151.57;;;6.10;94.10;;;;;;5016629;28;20976;-84
2022/04/08 06:37:16;;;;;;;177.43;170.20;;;6.10;92.90;;;;;;5016598;28;20473;-84
2022/04/08 06:39:44;;;;;;;158.00;151.17;;;6.20;93.40;;;;;;5015453;28;20516;-85
2022/04/08 06:42:11;;;;;;;120.90;115.80;;;6.40;92.70;;;;;;5013415;28;20464;-84
2022/04/08 06:44:38;;;;;;;92.53;88.43;;;6.40;92.00;;;;;;5016669;28;20533;-84
2022/04/08 06:47:04;;;;;;;89.77;85.90;;;6.40;91.50;;;;;;5015686;28;20485;-85
2022/04/08 06:49:32;;;;;;;69.10;65.80;;;6.50;91.50;;;;;;5015489;28;20849;-85
2022/04/08 06:51:59;;;;;;;72.70;69.17;;;6.50;91.40;;;;;;5016943;28;20453;-84
2022/04/08 06:54:26;;;;;;;64.60;61.27;;;6.70;91.10;;;;;;5015656;28;21292;-85
2022/04/08 06:56:53;;;;;;;68.90;65.50;;;6.70;91.00;;;;;;5016577;28;20474;-83
2022/04/08 06:59:19;;;;;;;81.03;77.23;;;6.80;90.90;;;;;;5015648;28;20464;-84
2022/04/08 07:01:46;;;;;;;62.77;59.33;;;7.00;90.90;;;;;;5020028;28;20937;-83
2022/04/08 07:04:13;;;;;;;51.67;48.77;;;7.30;90.20;;;;;;5021459;28;20476;-85
2022/04/08 07:06:41;;;;;;;36.33;34.23;;;7.50;88.30;;;;;;5021201;28;20449;-85
2022/04/08 07:09:07;;;;;;;30.30;28.30;;;7.50;85.20;;;;;;5020668;28;20480;-84
2022/04/08 07:11:35;;;;;;;21.37;19.63;;;7.70;86.40;;;;;;5021063;28;20961;-85
2022/04/08 07:14:04;;;;;;;13.10;9.20;;;8.00;83.90;;;;;;5022493;28;20488;-85
2022/04/08 07:16:30;;;;;;;14.40;10.03;;;8.00;80.20;;;;;;5026451;28;20453;-86
2022/04/08 07:18:57;;;;;;;10.20;7.67;;;8.30;80.90;;;;;;5019561;28;20450;-84
2022/04/08 07:21:24;;;;;;;12.53;7.03;;;8.20;78.60;;;;;;5019981;28;20457;-85
2022/04/08 07:23:52;;;;;;;10.90;5.90;;;8.20;76.50;;;;;;5020653;28;20452;-84
2022/04/08 07:26:20;;;;;;;15.00;7.20;;;8.20;77.00;;;;;;5021153;28;20457;-84
2022/04/08 07:28:47;;;;;;;10.40;6.60;;;8.30;76.50;;;;;;5020344;28;20986;-84
2022/04/08 07:31:14;;;;;;;11.20;6.53;;;8.20;74.80;;;;;;5019963;28;20457;-84
2022/04/08 07:33:41;;;;;;;10.83;5.83;;;8.20;73.60;;;;;;5019853;28;20456;-84
2022/04/08 07:36:08;;;;;;;9.03;6.07;;;7.80;73.70;;;;;;5021121;28;20461;-84
2022/04/08 07:38:34;;;;;;;8.57;6.47;;;8.00;76.10;;;;;;5019382;28;20499;-84
2022/04/08 07:41:03;;;;;;;12.77;6.70;;;7.90;74.70;;;;;;5020472;28;20468;-84
2022/04/08 07:43:29;;;;;;;11.20;6.43;;;7.80;75.50;;;;;;5021317;28;20453;-84
2022/04/08 07:45:56;;;;;;;9.27;5.60;;;7.70;74.20;;;;;;5020071;28;20468;-84
2022/04/08 07:48:23;;;;;;;12.37;6.13;;;7.80;72.70;;;;;;5019872;28;20485;-84
2022/04/08 07:50:49;;;;;;;15.13;6.50;;;7.80;75.00;;;;;;5021187;28;20453;-84
2022/04/08 07:53:16;;;;;;;12.13;6.67;;;7.80;74.60;;;;;;5019381;28;20454;-84
2022/04/08 07:55:43;;;;;;;12.37;7.13;;;7.80;73.90;;;;;;5020749;28;20453;-84
2022/04/08 07:58:11;;;;;;;10.13;7.40;;;7.70;73.20;;;;;;5020135;28;20473;-84
2022/04/08 08:00:38;;;;;;;10.90;6.20;;;8.00;74.70;;;;;;5020911;28;20461;-84
2022/04/08 08:03:05;;;;;;;10.47;5.60;;;8.10;74.00;;;;;;5019667;28;20449;-84
2022/04/08 08:05:32;;;;;;;10.63;5.77;;;8.10;70.80;;;;;;5020599;28;20950;-84
2022/04/08 08:08:01;;;;;;;14.13;6.47;;;8.20;70.90;;;;;;5019398;28;20512;-84
2022/04/08 08:10:29;;;;;;;12.50;6.20;;;8.30;69.80;;;;;;5019933;28;20460;-84
2022/04/08 08:12:57;;;;;;;12.97;6.10;;;8.40;67.90;;;;;;5020069;28;20453;-84
2022/04/08 08:15:26;;;;;;;8.93;5.80;;;8.60;68.80;;;;;;5020464;28;20453;-85
2022/04/08 08:17:55;;;;;;;13.23;6.23;;;8.60;65.50;;;;;;5020634;28;20476;-85
2022/04/08 08:20:23;;;;;;;13.43;6.47;;;8.70;65.70;;;;;;5018462;28;20519;-84
2022/04/08 08:22:50;;;;;;;8.80;5.37;;;8.90;64.70;;;;;;5020719;28;20461;-85
2022/04/08 08:25:18;;;;;;;13.37;6.00;;;8.90;63.30;;;;;;5020622;28;20449;-84
2022/04/08 08:27:46;;;;;;;12.20;6.13;;;9.20;63.60;;;;;;5020123;28;20485;-85
2022/04/08 08:30:15;;;;;;;13.13;5.93;;;9.20;63.70;;;;;;5019906;28;20453;-85
2022/04/08 08:32:45;;;;;;;8.13;6.27;;;9.10;62.30;;;;;;5020127;28;20453;-85
2022/04/08 08:35:14;;;;;;;13.60;7.00;;;9.00;63.50;;;;;;5020055;28;20938;-85
2022/04/08 08:37:41;;;;;;;10.63;5.80;;;9.30;64.00;;;;;;5020313;28;20475;-85
2022/04/08 08:40:11;;;;;;;8.40;5.23;;;9.40;61.40;;;;;;5019778;28;20457;-85
2022/04/08 08:42:39;;;;;;;11.30;5.50;;;9.30;56.90;;;;;;5020439;28;20549;-85
2022/04/08 08:45:07;;;;;;;12.10;6.00;;;9.20;56.90;;;;;;5019771;28;20525;-85
2022/04/08 08:47:35;;;;;;;9.73;5.13;;;9.20;57.80;;;;;;5019802;28;21016;-85
2022/04/08 08:50:04;;;;;;;10.10;6.17;;;9.40;56.60;;;;;;5019014;28;20452;-84
2022/04/08 08:52:32;;;;;;;17.30;5.60;;;9.40;58.00;;;;;;5019567;28;20468;-84
2022/04/08 08:54:59;;;;;;;11.77;5.07;;;9.60;57.60;;;;;;5019921;28;20464;-85
2022/04/08 08:57:26;;;;;;;26.60;15.43;;;9.40;53.90;;;;;;5018904;28;20527;-85
2022/04/08 08:59:53;;;;;;;14.37;5.27;;;9.40;57.80;;;;;;5018787;28;20460;-85
2022/04/08 09:02:22;;;;;;;11.37;5.70;;;9.50;56.70;;;;;;5020162;28;20457;-85
2022/04/08 09:04:50;;;;;;;7.93;4.20;;;9.50;53.00;;;;;;5020067;28;20453;-85
2022/04/08 09:07:25;;;;;;;10.20;4.60;;;9.60;51.60;;;;;;5019963;28;20477;-85
2022/04/08 09:09:53;;;;;;;8.40;4.50;;;9.60;52.90;;;;;;5019136;28;20979;-85
2022/04/08 09:12:21;;;;;;;8.90;4.50;;;9.60;54.90;;;;;;5019743;28;21020;-84
2022/04/08 09:14:49;;;;;;;12.43;5.43;;;9.70;52.00;;;;;;5019149;28;20494;-85
2022/04/08 09:17:18;;;;;;;11.10;4.80;;;9.90;52.20;;;;;;5018622;28;20539;-85
2022/04/08 09:19:49;;;;;;;9.80;5.80;;;10.00;49.50;;;;;;5017656;28;20450;-85
2022/04/08 09:22:16;;;;;;;12.93;5.10;;;10.10;48.90;;;;;;5018375;28;20454;-87
2022/04/08 09:24:44;;;;;;;7.30;4.30;;;10.30;49.00;;;;;;5017287;28;20493;-86
2022/04/08 09:27:12;;;;;;;10.37;4.50;;;10.30;46.80;;;;;;5018609;28;20851;-86
2022/04/08 09:29:44;;;;;;;11.80;4.90;;;10.40;46.70;;;;;;5016366;28;20485;-87
2022/04/08 09:32:12;;;;;;;7.20;4.50;;;10.60;46.90;;;;;;5019490;28;20962;-86
2022/04/08 09:34:41;;;;;;;10.33;4.87;;;10.60;45.80;;;;;;5018412;28;20460;-86
2022/04/08 09:37:11;;;;;;;9.13;4.70;;;10.50;45.60;;;;;;5018106;28;20480;-86
2022/04/08 09:39:38;;;;;;;10.17;5.73;;;10.60;43.80;;;;;;5018066;28;20441;-86
2022/04/08 09:42:08;;;;;;;11.80;7.73;;;10.10;43.00;;;;;;5018825;28;20954;-86
2022/04/08 09:44:37;;;;;;;7.53;5.77;;;10.20;44.90;;;;;;5018432;28;20527;-85
2022/04/08 09:47:04;;;;;;;8.50;4.73;;;10.20;44.50;;;;;;5018940;28;20568;-87
2022/04/08 09:49:31;;;;;;;12.70;5.90;;;10.20;44.10;;;;;;5017870;28;20473;-86
2022/04/08 09:51:59;;;;;;;11.90;5.30;;;10.00;46.60;;;;;;5018650;28;20883;-86
2022/04/08 09:54:28;;;;;;;9.17;5.50;;;10.10;46.50;;;;;;5018530;28;20460;-86
2022/04/08 09:56:58;;;;;;;9.30;4.57;;;10.20;44.10;;;;;;5018516;28;20539;-86
2022/04/08 09:59:29;;;;;;;9.70;5.00;;;10.00;41.10;;;;;;5018124;28;20454;-85
2022/04/08 10:01:57;;;;;;;11.00;5.73;;;10.00;43.80;;;;;;5018587;28;20460;-85
2022/04/08 10:04:24;;;;;;;10.20;5.40;;;10.30;44.20;;;;;;5018533;28;20460;-86
2022/04/08 10:06:51;;;;;;;11.13;5.70;;;10.20;44.10;;;;;;5018737;28;20512;-85
2022/04/08 10:09:20;;;;;;;12.43;5.23;;;10.10;44.00;;;;;;5018854;28;20664;-86
2022/04/08 10:11:51;;;;;;;7.70;5.20;;;10.10;44.80;;;;;;5018266;28;20452;-86
2022/04/08 10:14:31;;;;;;;8.70;5.37;;;10.00;42.30;;;;;;5018095;28;20461;-85
2022/04/08 10:16:59;;;;;;;11.20;6.30;;;10.10;42.40;;;;;;5018106;28;20485;-86
2022/04/08 10:19:25;;;;;;;9.17;8.20;;;10.10;40.10;;;;;;5018131;28;20451;-86
2022/04/08 10:21:53;;;;;;;9.50;6.80;;;10.10;42.00;;;;;;5017992;28;20457;-86
2022/04/08 10:24:24;;;;;;;11.00;7.90;;;10.30;45.30;;;;;;5017917;28;20479;-84
2022/04/08 10:27:00;;;;;;;8.77;5.60;;;10.50;46.80;;;;;;5018817;28;20489;-83
2022/04/08 10:29:28;;;;;;;11.07;9.00;;;10.10;43.40;;;;;;5037518;23;20584;-81
2022/04/08 10:31:57;;;;;;;13.40;6.30;;;10.00;44.90;;;;;;5017758;28;20848;-81
2022/04/08 10:34:24;;;;;;;9.23;5.00;;;9.80;44.70;;;;;;5019514;28;20456;-80
2022/04/08 10:36:52;;;;;;;10.10;6.80;;;9.70;44.60;;;;;;5025232;28;20456;-81
2022/04/08 10:39:21;;;;;;;9.40;5.23;;;10.00;45.40;;;;;;5022790;28;20473;-83
2022/04/08 10:41:50;;;;;;;7.30;5.00;;;9.90;45.30;;;;;;5025104;28;20476;-82
2022/04/08 10:44:18;;;;;;;9.60;5.50;;;10.20;44.10;;;;;;5024553;28;20457;-82
2022/04/08 10:46:53;;;;;;;17.33;6.03;;;10.20;46.40;;;;;;5022830;28;20459;-82
2022/04/08 10:49:20;;;;;;;16.00;8.57;;;10.00;44.70;;;;;;5023670;28;20495;-81
2022/04/08 10:51:49;;;;;;;11.00;6.40;;;10.10;43.60;;;;;;5024898;28;20460;-83
2022/04/08 10:54:17;;;;;;;8.63;5.33;;;10.00;41.20;;;;;;5024388;28;20809;-81
2022/04/08 10:56:44;;;;;;;14.17;4.40;;;10.10;43.90;;;;;;5024560;28;20464;-81
2022/04/08 10:59:11;;;;;;;12.03;3.47;;;9.90;40.60;;;;;;5023285;28;20465;-82
2022/04/08 11:01:48;;;;;;;6.13;2.93;;;9.90;41.70;;;;;;5024830;28;20957;-81
2022/04/08 11:04:19;;;;;;;6.87;3.23;;;9.90;39.90;;;;;;5024070;28;20457;-81
2022/04/08 11:06:46;;;;;;;6.33;2.90;;;9.80;37.40;;;;;;5023510;28;20453;-81
2022/04/08 11:09:15;;;;;;;9.30;3.40;;;10.00;37.70;;;;;;5023093;28;20476;-81
2022/04/08 11:11:43;;;;;;;7.60;3.13;;;9.80;38.30;;;;;;5023158;28;20519;-81
2022/04/08 11:14:11;;;;;;;8.30;3.43;;;9.80;40.10;;;;;;5023752;28;20763;-81
2022/04/08 11:16:38;;;;;;;6.23;3.60;;;9.80;38.10;;;;;;5024346;28;20457;-81
2022/04/08 11:19:06;;;;;;;7.10;3.77;;;10.10;37.20;;;;;;5023199;28;20469;-81
2022/04/08 11:21:36;;;;;;;12.73;3.60;;;10.20;36.60;;;;;;5024214;28;20985;-81
2022/04/08 11:24:04;;;;;;;5.60;3.30;;;10.20;37.60;;;;;;5024709;28;20460;-82
2022/04/08 11:26:40;;;;;;;7.03;3.70;;;10.10;35.10;;;;;;5023850;28;20453;-81
2022/04/08 11:29:11;;;;;;;7.10;3.13;;;10.00;34.10;;;;;;5020395;28;20568;-79
2022/04/08 11:31:39;;;;;;;7.20;3.60;;;10.10;36.40;;;;;;5023717;28;20988;-84
2022/04/08 11:34:06;;;;;;;10.40;3.43;;;10.30;34.70;;;;;;5023083;28;20455;-85
2022/04/08 11:36:35;;;;;;;9.00;3.33;;;10.20;35.20;;;;;;5022728;28;20457;-84
2022/04/08 11:39:02;;;;;;;11.80;4.13;;;10.30;35.70;;;;;;5020626;28;20505;-85
2022/04/08 11:42:18;;;;;;;;;;;;;;;;;;;;;
2022/04/08 11:44:45;;;;;;;9.07;5.83;;;10.80;33.70;;;;;;5014058;28;20456;-85
2022/04/08 11:47:13;;;;;;;7.87;4.50;;;10.60;32.50;;;;;;5015476;28;20464;-86
2022/04/08 11:49:48;;;;;;;7.90;4.90;;;10.60;34.30;;;;;;5014978;28;20485;-86
2022/04/08 11:52:28;;;;;;;9.93;4.33;;;10.40;32.50;;;;;;5017241;28;20522;-86
2022/04/08 11:55:03;;;;;;;11.30;4.63;;;10.50;33.70;;;;;;5017393;28;20484;-87
2022/04/08 11:57:35;;;;;;;10.50;5.20;;;10.70;35.70;;;;;;5016095;28;20548;-83
2022/04/08 12:00:06;;;;;;;11.47;4.40;;;10.60;37.50;;;;;;5019699;28;20464;-82
2022/04/08 12:02:32;;;;;;;12.53;4.77;;;10.60;35.60;;;;;;5020722;28;20464;-83
2022/04/08 12:05:00;;;;;;;10.03;4.40;;;10.80;38.40;;;;;;5020460;28;20942;-82
2022/04/08 12:07:29;;;;;;;15.80;8.83;;;11.10;37.30;;;;;;5020520;28;20976;-84
2022/04/08 12:09:58;;;;;;;13.93;8.93;;;10.90;33.10;;;;;;5019503;28;20478;-81
2022/04/08 12:12:25;;;;;;;19.43;6.33;;;11.20;38.30;;;;;;5020022;28;20504;-82
2022/04/08 12:14:52;;;;;;;8.97;5.30;;;11.20;33.50;;;;;;5019730;28;21146;-82
2022/04/08 12:17:20;;;;;;;8.57;4.30;;;10.70;32.30;;;;;;5020022;28;20453;-83
2022/04/08 12:19:51;;;;;;;10.70;5.50;;;10.60;31.60;;;;;;5019198;28;20483;-82
2022/04/08 12:22:19;;;;;;;14.20;6.53;;;10.90;34.20;;;;;;5019571;28;20480;-78
2022/04/08 12:24:56;;;;;;;11.53;4.90;;;10.80;35.30;;;;;;5018334;28;21060;-82
2022/04/08 12:27:24;;;;;;;9.63;4.53;;;10.90;34.50;;;;;;5019418;28;20444;-82
2022/04/08 12:29:59;;;;;;;8.87;5.10;;;10.80;31.30;;;;;;5019299;28;20486;-82
2022/04/08 12:32:43;;;;;;;10.53;5.10;;;10.60;34.10;;;;;;5019601;28;20480;-83
2022/04/08 12:35:19;;;;;;;8.93;4.60;;;10.50;32.50;;;;;;4999138;28;20452;-81
2022/04/08 12:38:22;;;;;;;;;;;;;;;;;;;;;
2022/04/08 12:44:12;;;;;;;11.57;5.40;;;10.20;35.20;;;;;;4998978;28;20450;-81
2022/04/08 12:46:40;;;;;;;11.80;5.47;;;10.30;34.20;;;;;;4962231;28;20462;-81
2022/04/08 12:49:16;;;;;;;13.67;5.27;;;10.40;36.50;;;;;;4998841;28;20509;-83
2022/04/08 12:51:50;;;;;;;10.83;5.20;;;10.50;35.00;;;;;;4999040;28;20477;-82
2022/04/08 12:54:16;;;;;;;11.63;4.40;;;10.40;35.10;;;;;;4999687;28;20458;-81
2022/04/08 12:56:44;;;;;;;10.07;4.37;;;10.30;35.60;;;;;;5000286;28;20457;-81